M I D A S
Marine Information and Data Acquisition System
Tripno 1504 of the Zeeleeuw from 2008-06-16 07:05:14 to 2008-06-16 11:18:40
Back to CruiseResearch ActivitiesStationsMapUnderway DataData graphs

EquipmentUnitsComment
TimeDGPSUTC
LatitudeDGPSDM.mWGS84
LongitudeDGPSDM.mWGS84
HeadingGyrodeg 
SOGDGPSknotsSpeed over ground
COGDGPSdegCourse over ground
DepthEcho soundermeters200 kHz
Missing or incorrect values are displayed as -999
Navigation data collected by the RV Zeeleeuw from 2008-06-16 07:05:52 to 2008-06-16 11:28:09
Time Latitude Longitude Heading SOG COG Depth
2008-06-16 07:06:57 51°13.623 2°56.048 118.9 0.1 186 -999
2008-06-16 07:07:57 51°13.63 2°56.025 114.3 2.7 298 -999
2008-06-16 07:08:57 51°13.655 2°55.927 110.2 5 291 -999
2008-06-16 07:09:57 51°13.68 2°55.817 100.9 3.5 285 -999
2008-06-16 07:10:55 51°13.688 2°55.761 86.5 1 288 11.1
2008-06-16 07:11:54 51°13.699 2°55.768 26 0.4 234 13.5
2008-06-16 07:12:57 51°13.715 2°55.743 332.9 4.8 329 13.5
2008-06-16 07:13:55 51°13.817 2°55.65 332.3 8.2 332 9.6
2008-06-16 07:14:53 51°13.941 2°55.551 333.6 8.8 333 10.4
2008-06-16 07:15:54 51°14.074 2°55.447 334.4 8.8 334 10.3
2008-06-16 07:16:55 51°14.205 2°55.329 328 9.1 325 -999
2008-06-16 07:17:55 51°14.317 2°55.151 309.8 9.8 309 9.9
2008-06-16 07:18:54 51°14.377 2°54.897 277.9 11.4 274 9.8
2008-06-16 07:19:53 51°14.372 2°54.582 265.7 12.6 264 10.2
2008-06-16 07:20:54 51°14.305 2°54.257 249.8 12.9 251 9
2008-06-16 07:21:54 51°14.234 2°53.933 251.8 13 251 8.9
2008-06-16 07:22:54 51°14.161 2°53.608 251.1 13 251 9.2
2008-06-16 07:23:53 51°14.087 2°53.288 250.9 13.1 250 9.7
2008-06-16 07:24:53 51°14.006 2°52.966 249.8 13.1 251 10.2
2008-06-16 07:25:53 51°13.929 2°52.64 251.1 13.1 249 10.5
2008-06-16 07:26:53 51°13.838 2°52.324 242.6 13.1 241 10.7
2008-06-16 07:27:53 51°13.727 2°52.025 241.8 13.1 241 10.7
2008-06-16 07:28:53 51°13.628 2°51.714 242.4 13.1 244 10.8
2008-06-16 07:29:53 51°13.513 2°51.42 238 13.1 238 11
2008-06-16 07:30:53 51°13.396 2°51.128 239 13 232 11.1
2008-06-16 07:31:53 51°13.288 2°50.827 241 13.1 241 11.2
2008-06-16 07:32:53 51°13.182 2°50.523 242.7 13.1 244 11.4
2008-06-16 07:33:53 51°13.08 2°50.214 243 13.1 242 11.5
2008-06-16 07:34:53 51°12.974 2°49.912 239.4 13 242 11.7
2008-06-16 07:35:53 51°12.861 2°49.616 240.1 13.3 239 11.7
2008-06-16 07:36:53 51°12.753 2°49.315 239.3 13.1 239 12
2008-06-16 07:37:53 51°12.643 2°49.014 240.6 13.1 238 12.1
2008-06-16 07:38:53 51°12.537 2°48.71 244.5 13.1 243 12.1
2008-06-16 07:39:53 51°12.431 2°48.406 241.1 13.1 241 12.2
2008-06-16 07:40:53 51°12.319 2°48.109 241 13.1 238 12.4
2008-06-16 07:41:53 51°12.216 2°47.803 242.8 13 239 12.6
2008-06-16 07:42:53 51°12.124 2°47.489 249.6 13.1 249 12.7
2008-06-16 07:43:53 51°12.049 2°47.163 251.4 13.1 246 12.7
2008-06-16 07:44:53 51°11.966 2°46.843 248.5 13.1 248 12.9
2008-06-16 07:45:53 51°11.883 2°46.521 250.8 13.1 247 13.1
2008-06-16 07:46:53 51°11.796 2°46.204 250.3 13 248 13
2008-06-16 07:47:53 51°11.714 2°45.883 249.9 13.1 249 13.1
2008-06-16 07:48:53 51°11.634 2°45.562 250.9 13.1 251 13.1
2008-06-16 07:49:53 51°11.562 2°45.236 255.5 13.1 254 13.1
2008-06-16 07:50:53 51°11.495 2°44.908 252.9 12.9 250 13.1
2008-06-16 07:51:53 51°11.424 2°44.582 254.9 13.1 251 13
2008-06-16 07:52:53 51°11.358 2°44.253 255 13 253 13
2008-06-16 07:53:53 51°11.287 2°43.927 251.7 13 251 13.1
2008-06-16 07:54:53 51°11.218 2°43.6 254.1 13 253 12.9
2008-06-16 07:55:53 51°11.163 2°43.268 258.5 12.9 255 13.2
2008-06-16 07:56:53 51°11.109 2°42.936 257.4 12.9 256 13
2008-06-16 07:57:53 51°11.049 2°42.607 254.2 12.8 252 13
2008-06-16 07:58:53 51°10.982 2°42.282 252.2 12.7 248 13
2008-06-16 07:59:53 51°10.908 2°41.963 252 12.9 253 13.1
2008-06-16 08:00:53 51°10.843 2°41.641 253.8 12.8 253 13.1
2008-06-16 08:01:53 51°10.785 2°41.315 255.9 12.7 254 12.9
2008-06-16 08:02:53 51°10.729 2°40.989 257 12.8 256 13.1
2008-06-16 08:03:53 51°10.674 2°40.664 253.2 12.6 251 13.5
2008-06-16 08:04:53 51°10.615 2°40.343 256.4 12.6 255 14
2008-06-16 08:05:53 51°10.561 2°40.021 254.2 12.5 253 14.5
2008-06-16 08:06:53 51°10.502 2°39.702 254.2 12.6 253 15.3
2008-06-16 08:07:53 51°10.427 2°39.393 240.8 12.5 241 15.5
2008-06-16 08:08:53 51°10.365 2°39.073 259.3 12.7 258 16
2008-06-16 08:09:53 51°10.32 2°38.745 256.2 12.7 255 16.8
2008-06-16 08:10:53 51°10.271 2°38.42 255.7 12.6 256 16.5
2008-06-16 08:11:53 51°10.215 2°38.1 253.6 12.5 256 17.2
2008-06-16 08:12:53 51°10.158 2°37.78 252.2 12.6 253 17.9
2008-06-16 08:13:53 51°10.099 2°37.459 252.7 12.7 253 18.4
2008-06-16 08:14:53 51°10.05 2°37.133 255.4 12.7 257 18.6
2008-06-16 08:15:53 51°9.997 2°36.809 251.5 12.6 254 18.6
2008-06-16 08:16:53 51°9.939 2°36.489 251.8 12.6 252 18.5
2008-06-16 08:17:53 51°9.887 2°36.167 254.2 12.5 257 18.7
2008-06-16 08:18:53 51°9.833 2°35.846 252.3 12.5 253 19.1
2008-06-16 08:19:53 51°9.787 2°35.522 254.9 12.6 259 19.4
2008-06-16 08:20:53 51°9.732 2°35.203 252.4 12.4 255 19.6
2008-06-16 08:21:53 51°9.687 2°34.881 254.8 12.4 255 19
2008-06-16 08:22:53 51°9.641 2°34.559 254.6 12.5 255 18.1
2008-06-16 08:23:53 51°9.581 2°34.247 251.7 12.4 254 16.3
2008-06-16 08:24:53 51°9.537 2°34.022 242.2 5.9 244 16.1
2008-06-16 08:25:53 51°9.486 2°33.953 188.3 3.1 193 16.8
2008-06-16 08:26:53 51°9.464 2°33.945 157.3 0.4 231 17.2
2008-06-16 08:27:53 51°9.461 2°33.939 145.5 0.4 244 17.6
2008-06-16 08:28:53 51°9.459 2°33.934 142.2 0.3 249 17.4
2008-06-16 08:29:53 51°9.458 2°33.93 142.1 0.2 267 17.5
2008-06-16 08:30:53 51°9.457 2°33.926 141.4 0.1 261 17.6
2008-06-16 08:31:53 51°9.457 2°33.922 138.4 0.2 287 17.3
2008-06-16 08:32:53 51°9.456 2°33.917 136.2 0.1 260 17.5
2008-06-16 08:33:53 51°9.456 2°33.913 136.1 0.1 278 17.4
2008-06-16 08:34:53 51°9.455 2°33.909 137.1 0.1 284 17.7
2008-06-16 08:35:53 51°9.455 2°33.904 139.4 0.2 257 17.4
2008-06-16 08:36:53 51°9.454 2°33.9 140.1 0.2 268 17.7
2008-06-16 08:37:53 51°9.454 2°33.895 142.2 0.1 320 17.8
2008-06-16 08:38:53 51°9.454 2°33.891 142.4 0.1 298 17.4
2008-06-16 08:39:53 51°9.454 2°33.889 143.1 0.1 273 17.7
2008-06-16 08:40:53 51°9.455 2°33.886 142.3 0.1 311 17.6
2008-06-16 08:41:53 51°9.455 2°33.884 141.9 0.1 330 17.6
2008-06-16 08:42:53 51°9.455 2°33.881 142.1 0.2 265 17.4
2008-06-16 08:43:53 51°9.456 2°33.88 143.6 0.1 318 17.4
2008-06-16 08:44:53 51°9.457 2°33.879 145.6 0.1 348 17.5
2008-06-16 08:45:53 51°9.459 2°33.879 146 -999 294 17.5
2008-06-16 08:46:53 51°9.46 2°33.88 145.8 0.1 3 17.5
2008-06-16 08:47:53 51°9.462 2°33.881 145 0.3 48 17.1
2008-06-16 08:48:53 51°9.463 2°33.882 144 -999 347 17.4
2008-06-16 08:49:53 51°9.464 2°33.884 141.6 -999 339 17.5
2008-06-16 08:50:53 51°9.466 2°33.887 140.2 0.1 32 17.3
2008-06-16 08:51:53 51°9.468 2°33.89 139.3 0.1 25 17.4
2008-06-16 08:52:53 51°9.458 2°33.924 113.2 2.5 102 17.9
2008-06-16 08:53:53 51°9.478 2°34 42.3 3.6 38 17.8
2008-06-16 08:54:53 51°9.561 2°34.019 358.5 7.3 -999 15.8
2008-06-16 08:55:53 51°9.684 2°34.013 355.4 5.9 -999 12.9
2008-06-16 08:56:53 51°9.76 2°34.026 6.1 3.7 15 12.5
2008-06-16 08:57:53 51°9.81 2°34.057 13 3 26 12.5
2008-06-16 08:58:53 51°9.851 2°34.095 17.1 2.9 33 12.5
2008-06-16 08:59:53 51°9.891 2°34.134 13.3 2.8 31 12.5
2008-06-16 09:00:53 51°9.932 2°34.167 8.2 2.7 26 12.1
2008-06-16 09:01:53 51°9.975 2°34.202 11.6 3.1 26 12.4
2008-06-16 09:02:53 51°10.022 2°34.241 13.7 3.2 27 12.5
2008-06-16 09:03:53 51°10.07 2°34.283 18.4 3.4 33 12.5
2008-06-16 09:04:53 51°10.118 2°34.332 19.2 3.4 33 12.3
2008-06-16 09:05:53 51°10.165 2°34.384 24.1 3.5 37 11.8
2008-06-16 09:06:53 51°10.209 2°34.44 25.3 3.4 37 11.7
2008-06-16 09:07:53 51°10.254 2°34.495 24 3.4 37 11.4
2008-06-16 09:08:53 51°10.298 2°34.55 23.7 3.3 39 11.3
2008-06-16 09:09:53 51°10.343 2°34.605 22.8 3.4 37 11.2
2008-06-16 09:10:53 51°10.387 2°34.657 21.7 3.3 38 11.2
2008-06-16 09:11:53 51°10.43 2°34.708 21.6 3.2 37 11
2008-06-16 09:12:53 51°10.473 2°34.758 21.4 3 36 10.8
2008-06-16 09:13:53 51°10.513 2°34.81 28.6 3.1 42 10.9
2008-06-16 09:14:53 51°10.548 2°34.877 47.1 3.3 57 11.2
2008-06-16 09:15:53 51°10.574 2°34.953 52.8 3.2 58 11.1
2008-06-16 09:16:53 51°10.597 2°35.033 59.5 3.4 70 11.2
2008-06-16 09:17:53 51°10.617 2°35.118 65.7 3.4 71 11.6
2008-06-16 09:18:53 51°10.633 2°35.204 65.6 3.4 73 11.8
2008-06-16 09:19:53 51°10.653 2°35.288 61.8 3.4 67 11.4
2008-06-16 09:20:53 51°10.675 2°35.37 59.3 3.4 61 12
2008-06-16 09:21:53 51°10.697 2°35.452 61.1 3.3 67 12.3
2008-06-16 09:22:53 51°10.718 2°35.533 64.1 3.3 67 12.2
2008-06-16 09:23:53 51°10.735 2°35.615 67.5 3.3 78 12.6
2008-06-16 09:24:53 51°10.753 2°35.698 69.3 3.3 73 12.5
2008-06-16 09:25:53 51°10.768 2°35.781 71.9 3.2 73 12.6
2008-06-16 09:26:53 51°10.781 2°35.865 75.4 3.3 75 13
2008-06-16 09:27:53 51°10.794 2°35.951 76.4 3.3 78 13.2
2008-06-16 09:28:53 51°10.806 2°36.036 78.7 3.3 77 13.6
2008-06-16 09:29:53 51°10.816 2°36.121 80.6 3.3 78 13.8
2008-06-16 09:30:53 51°10.824 2°36.207 82.4 3.3 82 13.9
2008-06-16 09:31:53 51°10.832 2°36.292 85.2 3.2 82 13.9
2008-06-16 09:32:53 51°10.839 2°36.374 88.1 3.1 85 14.1
2008-06-16 09:33:53 51°10.836 2°36.451 119.7 2.7 103 14.1
2008-06-16 09:34:53 51°10.82 2°36.506 148.2 2 113 13.9
2008-06-16 09:35:53 51°10.808 2°36.548 142.3 1.6 111 13.9
2008-06-16 09:36:53 51°10.802 2°36.588 130.9 1.4 100 13.9
2008-06-16 09:37:53 51°10.8 2°36.623 121.3 1.3 92 13.6
2008-06-16 09:38:53 51°10.801 2°36.693 80.9 4.6 74 13.3
2008-06-16 09:39:53 51°10.874 2°36.764 359.5 5.6 10 13.7
2008-06-16 09:40:53 51°10.949 2°36.801 14.1 4 25 14
2008-06-16 09:41:53 51°11 2°36.846 18.8 3.2 32 14.5
2008-06-16 09:42:53 51°11.041 2°36.891 19.3 2.9 33 14.6
2008-06-16 09:43:53 51°11.083 2°36.936 19.6 3.2 33 14.9
2008-06-16 09:44:53 51°11.13 2°36.984 18.9 3.5 33 15.2
2008-06-16 09:45:53 51°11.178 2°37.028 16.3 3.3 31 15.7
2008-06-16 09:46:53 51°11.223 2°37.068 14.2 2.9 30 15.5
2008-06-16 09:47:53 51°11.266 2°37.105 12.2 2.9 27 15.8
2008-06-16 09:48:53 51°11.313 2°37.139 8.6 3.2 25 15.9
2008-06-16 09:49:53 51°11.362 2°37.169 6.4 3.2 21 16.1
2008-06-16 09:50:53 51°11.41 2°37.197 5 3 21 16
2008-06-16 09:51:53 51°11.457 2°37.228 11.7 3.1 24 16
2008-06-16 09:52:53 51°11.502 2°37.269 21.7 3.2 35 16.3
2008-06-16 09:53:53 51°11.543 2°37.323 35.4 3.2 42 16.3
2008-06-16 09:54:53 51°11.581 2°37.386 40.6 3.4 47 16.2
2008-06-16 09:55:53 51°11.618 2°37.452 42.8 3.3 51 16.3
2008-06-16 09:56:53 51°11.653 2°37.519 45.5 3.2 51 16.4
2008-06-16 09:57:53 51°11.684 2°37.589 54 3.2 56 16.4
2008-06-16 09:58:53 51°11.709 2°37.662 62.6 3.1 63 16.6
2008-06-16 09:59:53 51°11.732 2°37.737 65.7 3.1 63 16.5
2008-06-16 10:00:53 51°11.754 2°37.811 61.9 3.1 65 16.3
2008-06-16 10:01:53 51°11.78 2°37.884 59.4 3.2 61 16.4
2008-06-16 10:02:53 51°11.804 2°37.956 58.3 3.1 64 16.4
2008-06-16 10:03:53 51°11.83 2°38.027 58 3.1 60 16.4
2008-06-16 10:04:53 51°11.855 2°38.097 57.1 3.1 63 16.3
2008-06-16 10:05:53 51°11.879 2°38.169 59.2 3 66 16.3
2008-06-16 10:06:53 51°11.9 2°38.24 59.8 3 65 16.2
2008-06-16 10:07:53 51°11.921 2°38.312 61.2 3 67 16.1
2008-06-16 10:08:53 51°11.941 2°38.383 60.8 3 68 16
2008-06-16 10:09:53 51°11.961 2°38.457 61.6 3.1 66 15.8
2008-06-16 10:10:53 51°11.982 2°38.53 61.5 3.1 64 15.6
2008-06-16 10:11:53 51°12.003 2°38.602 59.1 3 59 15.6
2008-06-16 10:12:53 51°12.026 2°38.674 59.4 2.9 62 15.3
2008-06-16 10:13:53 51°12.046 2°38.744 60.9 2.9 64 15.5
2008-06-16 10:14:53 51°12.066 2°38.816 61.9 3 70 15.3
2008-06-16 10:15:53 51°12.086 2°38.888 62 3 66 15
2008-06-16 10:16:53 51°12.107 2°38.961 61.6 3 68 14.9
2008-06-16 10:17:53 51°12.129 2°39.033 61 3 61 14.7
2008-06-16 10:18:53 51°12.15 2°39.106 61.7 3 65 14.8
2008-06-16 10:19:53 51°12.165 2°39.179 83.4 2.8 81 14.6
2008-06-16 10:20:53 51°12.166 2°39.253 106.6 2.8 96 14.5
2008-06-16 10:21:53 51°12.156 2°39.324 125.3 2.8 107 14.4
2008-06-16 10:22:53 51°12.138 2°39.388 139.7 2.5 113 14
2008-06-16 10:23:53 51°12.124 2°39.441 134 2.1 102 13.9
2008-06-16 10:24:53 51°12.117 2°39.489 125 1.7 106 13.7
2008-06-16 10:25:53 51°12.113 2°39.532 117 1.5 90 13.6
2008-06-16 10:26:53 51°12.112 2°39.57 111.7 1.3 96 13.4
2008-06-16 10:27:53 51°12.112 2°39.619 93.8 2.8 82 13.3
2008-06-16 10:28:53 51°12.156 2°39.762 58 9.2 60 13.4
2008-06-16 10:29:53 51°12.251 2°40.012 57.2 12.4 59 13.6
2008-06-16 10:30:53 51°12.362 2°40.312 60.7 13.4 61 13.8
2008-06-16 10:31:53 51°12.467 2°40.625 62.8 13.5 63 13.8
2008-06-16 10:32:53 51°12.57 2°40.939 62.1 13.4 62 13.9
2008-06-16 10:33:53 51°12.676 2°41.25 61 13.4 63 13.7
2008-06-16 10:34:53 51°12.787 2°41.557 58.6 13.4 60 13.4
2008-06-16 10:35:53 51°12.882 2°41.877 67 13.4 66 13.4
2008-06-16 10:36:53 51°12.978 2°42.197 63 13.3 63 13.1
2008-06-16 10:37:53 51°13.072 2°42.516 67 13.3 66 12.7
2008-06-16 10:38:53 51°13.163 2°42.839 65.4 13.4 65 12.1
2008-06-16 10:39:53 51°13.26 2°43.156 64.4 13.4 62 12.1
2008-06-16 10:40:53 51°13.358 2°43.471 63.6 13.3 65 11.5
2008-06-16 10:41:53 51°13.445 2°43.794 66.7 13.2 66 11.5
2008-06-16 10:42:53 51°13.541 2°44.111 63.8 13.3 65 12.4
2008-06-16 10:43:53 51°13.637 2°44.427 64.5 13.2 64 13.2
2008-06-16 10:44:53 51°13.732 2°44.746 64.9 13.3 64 13.6
2008-06-16 10:45:53 51°13.824 2°45.067 67.1 13.3 67 13.8
2008-06-16 10:46:53 51°13.916 2°45.39 64.6 13.3 65 14
2008-06-16 10:47:53 51°14.005 2°45.714 67 13.4 68 13.5
2008-06-16 10:48:53 51°14.098 2°46.038 64 13.4 65 13.6
2008-06-16 10:49:53 51°14.185 2°46.364 76.8 13.4 75 13.2
2008-06-16 10:50:53 51°14.221 2°46.714 83.2 13.4 81 12.6
2008-06-16 10:51:53 51°14.255 2°47.061 82.8 13.2 80 12
2008-06-16 10:52:53 51°14.283 2°47.409 85.8 13.3 84 12.8
2008-06-16 10:53:53 51°14.315 2°47.756 83.8 13.2 82 13.6
2008-06-16 10:54:53 51°14.344 2°48.103 82.6 13.2 80 14
2008-06-16 10:55:54 51°14.381 2°48.457 84.7 13.4 81 14.2
2008-06-16 10:56:53 51°14.415 2°48.801 83.6 13.4 82 14.3
2008-06-16 10:57:53 51°14.449 2°49.152 83.6 13.5 80 14.2
2008-06-16 10:58:53 51°14.482 2°49.503 83.3 13.4 81 14.3
2008-06-16 10:59:54 51°14.518 2°49.862 82.7 13.5 81 14.3
2008-06-16 11:00:54 51°14.563 2°50.212 79.7 13.5 78 14
2008-06-16 11:01:53 51°14.608 2°50.556 80.2 13.5 79 13.8
2008-06-16 11:02:53 51°14.651 2°50.905 81.1 13.5 80 13.4
2008-06-16 11:03:53 51°14.69 2°51.255 81.9 13.3 80 13.2
2008-06-16 11:04:54 51°14.729 2°51.609 81.8 13.2 82 12.9
2008-06-16 11:05:54 51°14.761 2°51.959 86.9 13.4 85 12.5
2008-06-16 11:06:54 51°14.781 2°52.31 87.8 13.2 84 12.3
2008-06-16 11:07:53 51°14.791 2°52.652 90.7 12.8 87 12.2
2008-06-16 11:08:54 51°14.79 2°53 91.6 12.7 90 12.1
2008-06-16 11:09:53 51°14.775 2°53.332 100.6 12.8 99 12.5
2008-06-16 11:10:54 51°14.739 2°53.668 102.2 12.3 106 12.4
2008-06-16 11:11:54 51°14.697 2°53.998 103.6 12.9 101 13.3
2008-06-16 11:12:54 51°14.629 2°54.318 117.8 12.7 115 13.1
2008-06-16 11:13:53 51°14.538 2°54.613 122.5 12.7 116 13.1
2008-06-16 11:14:53 51°14.433 2°54.902 127.1 12.5 123 13.1
2008-06-16 11:15:53 51°14.322 2°55.142 130.1 10.2 133 12.9
2008-06-16 11:16:54 51°14.204 2°55.335 138.5 9.8 139 -999
2008-06-16 11:17:57 51°14.083 2°55.442 155.7 6.1 156 12.7
2008-06-16 11:18:56 51°13.998 2°55.506 153.8 5.7 154 12.9
2008-06-16 11:19:53 51°13.924 2°55.56 156 4.8 156 12.9
2008-06-16 11:20:53 51°13.854 2°55.605 158.7 4 160 12.8
2008-06-16 11:21:53 51°13.806 2°55.642 152.1 3 153 12.7
2008-06-16 11:22:53 51°13.766 2°55.669 160.8 1.8 161 12.7
2008-06-16 11:23:53 51°13.759 2°55.67 153.8 0.3 180 12.9
2008-06-16 11:24:53 51°13.755 2°55.67 151.9 0.4 305 12.9
2008-06-16 11:25:53 51°13.726 2°55.702 137.2 5.2 136 13.3
2008-06-16 11:26:53 51°13.674 2°55.838 112.8 5.4 112 10.7
2008-06-16 11:27:56 51°13.643 2°55.955 109.2 4 110 11.7